createdAt,value
2023-02-09T00:02:24.823Z,-7.59
2023-02-09T00:05:34.493Z,-7.48
2023-02-09T00:08:43.586Z,-7.75
2023-02-09T00:12:09.410Z,-7.75
2023-02-09T00:15:17.622Z,-7.63
2023-02-09T00:18:28.469Z,-7.70
2023-02-09T00:21:39.203Z,-7.76
2023-02-09T00:24:47.409Z,-7.72
2023-02-09T00:27:55.601Z,-7.79
2023-02-09T00:31:09.684Z,-7.49
2023-02-09T00:34:21.331Z,-7.50
2023-02-09T00:37:31.029Z,-7.76
2023-02-09T00:40:40.716Z,-7.77
2023-02-09T00:43:49.311Z,-7.76
2023-02-09T00:46:57.743Z,-7.66
2023-02-09T00:50:08.435Z,-7.64
2023-02-09T00:53:17.953Z,-7.74
2023-02-09T00:56:26.271Z,-8.02
2023-02-09T00:59:36.270Z,-7.90
2023-02-09T01:02:44.394Z,-7.96
2023-02-09T01:05:53.357Z,-7.91
2023-02-09T01:09:03.595Z,-7.79
2023-02-09T01:12:12.941Z,-7.95
2023-02-09T01:15:21.526Z,-8.10
2023-02-09T01:18:29.765Z,-8.33
2023-02-09T01:21:38.031Z,-8.24
2023-02-09T01:24:47.870Z,-8.32
2023-02-09T01:27:57.877Z,-8.28
2023-02-09T01:31:07.842Z,-8.13
2023-02-09T01:34:19.003Z,-8.33
2023-02-09T01:47:49.607Z,-8.37
2023-02-09T01:51:01.513Z,-8.45
2023-02-09T01:54:15.891Z,-8.44
2023-02-09T01:57:32.287Z,-8.54
2023-02-09T02:00:40.828Z,-8.30
2023-02-09T02:03:50.520Z,-8.48
2023-02-09T02:07:11.098Z,-8.57
2023-02-09T02:10:20.298Z,-8.44
2023-02-09T02:13:28.613Z,-8.35
2023-02-09T02:16:53.422Z,-8.28
2023-02-09T02:20:47.533Z,-8.32
2023-02-09T02:24:41.977Z,-8.46
2023-02-09T02:28:02.426Z,-8.50
2023-02-09T02:31:53.606Z,-8.52
2023-02-09T02:35:10.345Z,-8.58
2023-02-09T02:38:34.505Z,-8.48
2023-02-09T02:42:10.884Z,-8.66
2023-02-09T02:45:33.600Z,-8.48
2023-02-09T02:48:48.737Z,-8.60
2023-02-09T02:52:03.699Z,-8.76
2023-02-09T02:55:16.051Z,-8.88
2023-02-09T02:58:29.290Z,-9.05
2023-02-09T03:01:47.309Z,-9.09
2023-02-09T03:04:59.763Z,-9.11
2023-02-09T03:08:08.162Z,-9.01
2023-02-09T03:11:17.591Z,-8.88
2023-02-09T03:14:44.891Z,-8.99
2023-02-09T03:18:11.079Z,-8.99
2023-02-09T03:21:33.143Z,-9.00
2023-02-09T03:24:49.971Z,-8.97
2023-02-09T03:28:04.927Z,-8.85
2023-02-09T03:31:14.933Z,-8.94
2023-02-09T03:34:23.258Z,-8.81
2023-02-09T03:37:33.020Z,-8.86
2023-02-09T03:40:41.500Z,-8.89
2023-02-09T03:44:07.357Z,-9.01
2023-02-09T03:47:15.850Z,-8.85
2023-02-09T03:50:24.013Z,-8.92
2023-02-09T03:53:36.353Z,-8.82
2023-02-09T03:56:44.640Z,-8.94
2023-02-09T03:59:52.840Z,-8.90
2023-02-09T04:03:00.996Z,-8.84
2023-02-09T04:06:09.984Z,-8.81
2023-02-09T04:09:19.790Z,-8.82
2023-02-09T04:12:27.973Z,-8.87
2023-02-09T04:15:36.533Z,-9.00
2023-02-09T04:18:44.745Z,-9.12
2023-02-09T04:21:53.011Z,-8.91
2023-02-09T04:25:10.058Z,-9.04
2023-02-09T04:28:18.292Z,-9.03
2023-02-09T04:31:26.651Z,-8.96
2023-02-09T04:34:34.824Z,-9.07
2023-02-09T04:37:42.887Z,-8.96
2023-02-09T04:40:55.367Z,-8.89
2023-02-09T04:44:03.584Z,-9.00
2023-02-09T04:47:11.688Z,-9.06
2023-02-09T04:50:19.937Z,-9.15
2023-02-09T04:53:29.544Z,-9.26
2023-02-09T04:56:39.082Z,-9.12
2023-02-09T04:59:46.559Z,-9.00
2023-02-09T05:02:56.171Z,-9.00
2023-02-09T05:06:07.264Z,-8.98
2023-02-09T05:09:15.472Z,-9.09
2023-02-09T05:12:25.016Z,-8.96
2023-02-09T05:15:33.287Z,-8.92
2023-02-09T05:18:41.498Z,-8.90
2023-02-09T05:21:49.639Z,-8.94
2023-02-09T05:24:57.789Z,-8.95
2023-02-09T05:28:08.044Z,-8.90
2023-02-09T05:31:16.547Z,-8.84
2023-02-09T05:34:25.042Z,-8.99
2023-02-09T05:37:33.289Z,-8.98
2023-02-09T05:40:41.945Z,-8.83
2023-02-09T05:43:52.205Z,-8.98
2023-02-09T05:47:00.538Z,-9.17
2023-02-09T05:50:09.306Z,-8.98
2023-02-09T05:53:17.617Z,-8.88
2023-02-09T05:56:26.325Z,-8.91
2023-02-09T05:59:35.971Z,-8.84
2023-02-09T06:02:44.834Z,-8.82
2023-02-09T06:05:53.038Z,-8.78
2023-02-09T06:09:02.024Z,-8.76
2023-02-09T06:12:10.235Z,-8.74
2023-02-09T06:15:21.039Z,-8.76
2023-02-09T06:18:29.237Z,-8.71
2023-02-09T06:21:37.548Z,-8.65
2023-02-09T06:24:45.789Z,-8.48
2023-02-09T06:27:53.986Z,-8.41
2023-02-09T06:31:04.376Z,-8.32
2023-02-09T06:34:12.730Z,-8.57
2023-02-09T06:37:20.814Z,-8.63
2023-02-09T06:40:29.715Z,-8.42
2023-02-09T06:43:38.297Z,-8.30
2023-02-09T06:46:48.636Z,-8.25
2023-02-09T06:49:56.849Z,-8.16
2023-02-09T06:53:06.247Z,-8.05
2023-02-09T06:56:17.328Z,-7.94
2023-02-09T06:59:28.491Z,-8.00
2023-02-09T07:02:38.561Z,-7.83
2023-02-09T07:05:46.826Z,-7.86
2023-02-09T07:08:55.120Z,-7.77
2023-02-09T07:12:03.427Z,-7.61
2023-02-09T07:15:13.726Z,-7.52
2023-02-09T07:18:27.631Z,-7.55
2023-02-09T07:21:39.040Z,-7.43
2023-02-09T07:24:49.949Z,-7.13
2023-02-09T07:27:58.424Z,-6.85
2023-02-09T07:31:09.744Z,-6.63
2023-02-09T07:34:19.464Z,-6.41
2023-02-09T07:37:27.851Z,-6.23
2023-02-09T07:40:39.256Z,-5.94
2023-02-09T07:43:47.923Z,-5.69
2023-02-09T07:46:59.098Z,-5.48
2023-02-09T07:50:10.360Z,-5.35
2023-02-09T07:53:18.751Z,-5.13
2023-02-09T07:56:28.022Z,-5.05
2023-02-09T07:59:36.718Z,-4.97
2023-02-09T08:02:46.528Z,-4.84
2023-02-09T08:09:33.449Z,-4.46
2023-02-09T08:12:55.895Z,-4.19
2023-02-09T08:16:08.609Z,-3.89
2023-02-09T08:19:24.177Z,-3.71
2023-02-09T08:22:37.750Z,-3.39
2023-02-09T08:25:51.622Z,-3.23
2023-02-09T08:29:00.333Z,-3.08
2023-02-09T08:32:08.626Z,-2.95
2023-02-09T08:35:18.030Z,-2.81
2023-02-09T08:38:27.385Z,-2.52
2023-02-09T08:41:40.848Z,-2.46
2023-02-09T08:44:49.292Z,-2.29
2023-02-09T08:47:57.760Z,-2.20
2023-02-09T08:51:07.107Z,-2.08
2023-02-09T08:54:15.952Z,-1.96
2023-02-09T08:57:41.655Z,-1.72
2023-02-09T09:00:51.492Z,-1.69
2023-02-09T09:04:00.012Z,-1.70
2023-02-09T09:07:08.176Z,-1.61
2023-02-09T09:10:16.938Z,-1.45
2023-02-09T09:13:29.462Z,-1.22
2023-02-09T09:16:39.229Z,-1.07
2023-02-09T09:19:52.699Z,-0.92
2023-02-09T09:23:02.105Z,-0.82
2023-02-09T09:26:10.853Z,-0.73
2023-02-09T09:29:20.770Z,-0.62
2023-02-09T09:32:29.238Z,-0.42
2023-02-09T09:35:38.013Z,-0.41
2023-02-09T09:38:46.346Z,-0.25
2023-02-09T09:41:59.687Z,-0.20
2023-02-09T09:45:20.381Z,-0.05
2023-02-09T09:48:39.733Z,0.09
2023-02-09T09:51:53.866Z,0.15
2023-02-09T09:55:06.826Z,0.26
2023-02-09T09:58:20.680Z,0.42
2023-02-09T10:01:34.177Z,0.42
2023-02-09T10:04:42.789Z,0.49
2023-02-09T10:08:00.895Z,0.60
2023-02-09T10:11:14.121Z,0.54
2023-02-09T10:14:23.755Z,0.51
2023-02-09T10:17:33.679Z,0.64
2023-02-09T10:20:47.717Z,0.80
2023-02-09T10:24:13.596Z,0.97
2023-02-09T10:27:30.998Z,0.85
2023-02-09T10:30:39.652Z,0.84
2023-02-09T10:33:56.764Z,0.80
2023-02-09T10:37:27.419Z,0.93
2023-02-09T10:40:42.168Z,1.19
2023-02-09T10:43:53.853Z,1.27
2023-02-09T10:47:28.350Z,1.53
2023-02-09T10:50:53.755Z,1.38
2023-02-09T10:54:07.392Z,1.57
2023-02-09T10:57:29.830Z,1.73
2023-02-09T11:00:49.633Z,1.88
2023-02-09T11:04:02.663Z,2.08
2023-02-09T11:07:18.366Z,2.18
2023-02-09T11:10:31.033Z,2.19
2023-02-09T11:13:43.585Z,2.33
2023-02-09T11:17:18.300Z,2.40
2023-02-09T11:20:33.635Z,2.35
2023-02-09T11:23:56.971Z,2.40
2023-02-09T11:27:21.468Z,2.51
2023-02-09T11:30:57.062Z,2.61
2023-02-09T11:34:19.421Z,2.78
2023-02-09T11:37:44.021Z,2.78
2023-02-09T11:40:57.559Z,2.80
2023-02-09T11:44:12.586Z,3.00
2023-02-09T11:47:29.635Z,3.22
2023-02-09T11:50:52.400Z,3.42
2023-02-09T11:54:08.876Z,3.56
2023-02-09T11:57:35.781Z,3.62
2023-02-09T12:01:01.702Z,3.64
2023-02-09T12:04:24.806Z,3.73
2023-02-09T12:07:42.976Z,3.67
2023-02-09T12:11:09.098Z,3.75
2023-02-09T12:14:47.014Z,3.72
2023-02-09T12:18:01.072Z,3.82
2023-02-09T12:21:10.325Z,3.79
2023-02-09T12:24:40.091Z,4.01
2023-02-09T12:28:18.390Z,4.07
2023-02-09T12:31:29.061Z,4.17
2023-02-09T12:34:42.155Z,4.05
2023-02-09T12:38:19.212Z,4.08
2023-02-09T12:41:30.417Z,4.14
2023-02-09T12:44:40.179Z,4.14
2023-02-09T12:48:01.060Z,4.26
2023-02-09T12:52:07.663Z,4.15
2023-02-09T12:55:23.681Z,4.11
2023-02-09T12:58:41.419Z,4.20
2023-02-09T13:02:15.963Z,4.23
2023-02-09T13:05:30.342Z,4.23
2023-02-09T13:08:49.994Z,4.23
2023-02-09T13:12:11.593Z,4.29
2023-02-09T13:15:20.665Z,4.39
2023-02-09T13:18:39.566Z,4.49
2023-02-09T13:22:02.558Z,4.39
2023-02-09T13:25:21.536Z,4.39
2023-02-09T13:28:31.046Z,4.53
2023-02-09T13:31:43.658Z,4.59
2023-02-09T13:35:01.438Z,4.58
2023-02-09T13:38:18.490Z,4.48
2023-02-09T13:41:38.546Z,4.51
2023-02-09T13:44:51.160Z,4.41
2023-02-09T13:48:02.786Z,4.50
2023-02-09T13:51:19.340Z,4.44
2023-02-09T13:54:28.951Z,4.56
2023-02-09T13:57:40.477Z,4.47
2023-02-09T14:00:53.624Z,4.65
2023-02-09T14:04:13.227Z,4.66
2023-02-09T14:07:25.812Z,4.72
2023-02-09T14:10:36.597Z,4.70
2023-02-09T14:13:53.114Z,4.65
2023-02-09T14:17:24.359Z,4.71
2023-02-09T14:20:33.373Z,4.68
2023-02-09T14:23:44.130Z,4.55
2023-02-09T14:27:24.758Z,4.65
2023-02-09T14:30:36.308Z,4.66
2023-02-09T14:33:50.025Z,4.41
2023-02-09T14:37:02.426Z,4.24
2023-02-09T14:40:25.122Z,4.18
2023-02-09T14:43:34.670Z,4.17
2023-02-09T14:46:53.190Z,4.06
2023-02-09T14:50:02.125Z,4.09
2023-02-09T14:53:16.191Z,3.96
2023-02-09T14:56:31.080Z,4.07
2023-02-09T14:59:40.781Z,4.07
2023-02-09T15:02:50.348Z,3.98
2023-02-09T15:06:02.328Z,3.93
2023-02-09T15:09:21.384Z,3.83
2023-02-09T15:12:31.298Z,3.76
2023-02-09T15:15:41.470Z,3.80
2023-02-09T15:18:50.143Z,3.76
2023-02-09T15:22:07.015Z,3.67
2023-02-09T15:25:19.091Z,3.58
2023-02-09T15:28:30.399Z,3.52
2023-02-09T15:31:40.761Z,3.42
2023-02-09T15:34:49.817Z,3.54
2023-02-09T15:38:01.422Z,3.41
2023-02-09T15:41:30.091Z,3.32
2023-02-09T15:44:55.800Z,3.30
2023-02-09T15:48:10.019Z,2.97
2023-02-09T15:51:18.706Z,2.71
2023-02-09T15:54:34.705Z,2.63
2023-02-09T15:57:42.912Z,2.48
2023-02-09T16:00:52.984Z,2.30
2023-02-09T16:04:13.786Z,2.18
2023-02-09T16:07:29.189Z,2.02
2023-02-09T16:10:39.006Z,1.84
2023-02-09T16:13:48.167Z,1.73
2023-02-09T16:16:57.031Z,1.65
2023-02-09T16:20:08.806Z,1.50
2023-02-09T16:23:24.087Z,1.39
2023-02-09T16:26:34.268Z,1.33
2023-02-09T16:29:42.699Z,1.13
2023-02-09T16:32:52.075Z,0.91
2023-02-09T16:36:05.156Z,0.70
2023-02-09T16:39:18.919Z,0.68
2023-02-09T16:42:29.412Z,0.45
2023-02-09T16:45:44.614Z,0.26
2023-02-09T16:48:56.590Z,0.08
2023-02-09T16:52:16.704Z,-0.08
2023-02-09T16:55:29.933Z,-0.20
2023-02-09T16:58:40.262Z,-0.32
2023-02-09T17:01:49.141Z,-0.41
2023-02-09T17:04:58.101Z,-0.45
2023-02-09T17:08:17.016Z,-0.56
2023-02-09T17:11:29.420Z,-0.63
2023-02-09T17:14:38.185Z,-0.62
2023-02-09T17:17:52.191Z,-0.46
2023-02-09T17:21:06.825Z,-0.50
2023-02-09T17:24:18.840Z,-0.84
2023-02-09T17:27:27.249Z,-1.00
2023-02-09T17:30:36.678Z,-1.14
2023-02-09T17:33:47.623Z,-0.96
2023-02-09T17:36:56.031Z,-0.72
2023-02-09T17:40:06.411Z,-0.79
2023-02-09T17:43:14.570Z,-1.08
2023-02-09T17:46:23.726Z,-1.28
2023-02-09T17:49:32.180Z,-1.29
2023-02-09T17:52:40.561Z,-1.66
2023-02-09T17:55:51.613Z,-1.84
2023-02-09T17:59:03.064Z,-1.95
2023-02-09T18:02:17.519Z,-1.96
2023-02-09T18:05:28.568Z,-1.97
2023-02-09T18:08:36.675Z,-1.94
2023-02-09T18:12:02.407Z,-1.96
2023-02-09T18:15:23.128Z,-2.01
2023-02-09T18:18:31.218Z,-1.81
2023-02-09T18:21:40.852Z,-1.91
2023-02-09T18:24:49.186Z,-2.02
2023-02-09T18:27:58.781Z,-1.98
2023-02-09T18:31:07.280Z,-2.04
2023-02-09T18:34:16.719Z,-2.11
2023-02-09T18:37:24.840Z,-2.13
2023-02-09T18:40:34.433Z,-1.86
2023-02-09T18:43:44.683Z,-2.09
2023-02-09T18:46:52.905Z,-2.21
2023-02-09T18:50:01.269Z,-2.24
2023-02-09T18:53:09.594Z,-2.32
2023-02-09T18:56:20.351Z,-2.41
2023-02-09T18:59:32.094Z,-2.33
2023-02-09T19:02:40.609Z,-2.28
2023-02-09T19:05:49.240Z,-2.11
2023-02-09T19:08:57.605Z,-2.41
2023-02-09T19:12:09.633Z,-2.46
2023-02-09T19:15:22.416Z,-2.30
2023-02-09T19:18:31.775Z,-2.44
2023-02-09T19:21:39.998Z,-2.37
2023-02-09T19:24:51.370Z,-2.56
2023-02-09T19:28:04.413Z,-2.45
2023-02-09T19:31:15.999Z,-2.54
2023-02-09T19:34:25.285Z,-2.74
2023-02-09T19:37:33.880Z,-2.62
2023-02-09T19:40:43.636Z,-2.62
2023-02-09T19:43:56.912Z,-2.82
2023-02-09T19:47:06.958Z,-2.72
2023-02-09T19:50:18.975Z,-2.77
2023-02-09T19:53:28.608Z,-2.99
2023-02-09T19:56:36.872Z,-3.11
2023-02-09T19:59:45.519Z,-3.03
2023-02-09T20:02:55.193Z,-2.91
2023-02-09T20:06:09.220Z,-2.99
2023-02-09T20:09:17.694Z,-2.94
2023-02-09T20:12:25.825Z,-2.95
2023-02-09T20:15:42.012Z,-2.89
2023-02-09T20:18:55.572Z,-3.06
2023-02-09T20:22:03.981Z,-3.11
2023-02-09T20:25:15.139Z,-3.04
2023-02-09T20:28:24.340Z,-3.01
2023-02-09T20:31:38.094Z,-3.01
2023-02-09T20:34:48.297Z,-3.05
2023-02-09T20:37:56.476Z,-2.92
2023-02-09T20:41:09.671Z,-2.99
2023-02-09T20:44:35.418Z,-3.03
2023-02-09T20:47:43.668Z,-3.08
2023-02-09T20:50:53.567Z,-3.43
2023-02-09T20:54:02.049Z,-3.53
2023-02-09T20:57:10.731Z,-3.32
2023-02-09T21:00:19.824Z,-3.32
2023-02-09T21:03:27.915Z,-3.38
2023-02-09T21:06:39.316Z,-3.40
2023-02-09T21:09:48.222Z,-3.41
2023-02-09T21:12:56.358Z,-3.69
2023-02-09T21:16:04.756Z,-3.82
2023-02-09T21:19:12.953Z,-3.81
2023-02-09T21:22:22.704Z,-3.78
2023-02-09T21:25:31.603Z,-3.87
2023-02-09T21:28:39.742Z,-3.96
2023-02-09T21:31:47.998Z,-4.00
2023-02-09T21:34:56.381Z,-4.04
2023-02-09T21:38:05.981Z,-4.11
2023-02-09T21:41:32.789Z,-4.35
2023-02-09T21:44:40.933Z,-4.38
2023-02-09T21:47:49.527Z,-4.34
2023-02-09T21:50:57.997Z,-4.42
2023-02-09T21:54:07.824Z,-4.30
2023-02-09T21:57:16.057Z,-4.17
2023-02-09T22:00:24.455Z,-4.33
2023-02-09T22:03:32.884Z,-4.27
2023-02-09T22:06:41.964Z,-4.25
2023-02-09T22:09:51.470Z,-4.27
2023-02-09T22:12:59.661Z,-4.35
2023-02-09T22:16:09.719Z,-4.32
2023-02-09T22:19:17.802Z,-4.27
2023-02-09T22:22:25.971Z,-4.33
2023-02-09T22:25:36.072Z,-4.36
2023-02-09T22:28:44.288Z,-4.37
2023-02-09T22:31:52.442Z,-4.43
2023-02-09T22:35:00.582Z,-4.46
2023-02-09T22:38:08.725Z,-4.49
2023-02-09T22:41:24.481Z,-4.54
2023-02-09T22:44:33.445Z,-4.57
2023-02-09T22:47:41.739Z,-4.60
2023-02-09T22:50:49.845Z,-4.46
2023-02-09T22:54:00.357Z,-4.39
2023-02-09T22:57:09.909Z,-4.31
2023-02-09T23:00:19.268Z,-4.31
2023-02-09T23:03:27.527Z,-4.37
2023-02-09T23:06:35.824Z,-4.42
2023-02-09T23:09:44.502Z,-4.36
2023-02-09T23:12:53.987Z,-4.32
2023-02-09T23:16:11.103Z,-4.46
2023-02-09T23:19:21.515Z,-4.61
2023-02-09T23:22:29.834Z,-4.71
2023-02-09T23:25:38.150Z,-4.78
2023-02-09T23:28:48.280Z,-4.80
2023-02-09T23:31:56.699Z,-4.76
2023-02-09T23:35:05.392Z,-4.65
2023-02-09T23:38:13.668Z,-4.56
2023-02-09T23:41:24.599Z,-4.50
2023-02-09T23:44:34.767Z,-4.46
2023-02-09T23:47:43.007Z,-4.39
2023-02-09T23:50:51.522Z,-4.16
2023-02-09T23:54:03.705Z,-3.95
2023-02-09T23:57:12.056Z,-3.83
